Open Full Screen Window  High Contrast Mode
Wind Gusting 14 knots
10
October 20, 2018 1:15 AM EDT
Weather Information
Wind Direction
  250 °
Wind Speed
  10 kt (12 mph)
Wind Gust
  14 kt (16 mph)
Altimeter
29.94 in
Visibility
10 SM
Temperature
09° C
48° F
Dewpoint
08° C
46° F
Humidity
94%
1hr Rain Fall
00.00 in.
24hr Rain Fall
00.03 in.
Sky Condition
Overcast @ 700 ft
IFR

METAR KI19 200515Z AUTO 25010G14KT 10SM OVC007 09/08 A2994 RMK AO2 T00900082

FAA Disclaimer: The data displayed is for advisory purposes only and is not to be used for flight planning or operations.